Погода Илья-Солтейрана неделю

Сан-Паулу, Бразилия

22 - 28 июля
  • 22июля
    Сегодня
    +16°
    +30°
    Ясно и безоблачно
    ВремяПогодаТемператураВлажностьДавлениеВетер, м/сВероятность осадков
    00:00Ясно и безоблачно+22°C74 %738 мм1.4 м/с5 %
    03:00Ясно и безоблачно+19°C67 %737 мм2.7 м/с5 %
    06:00Ясно и безоблачно+18°C67 %737 мм2.5 м/с5 %
    09:00Ясно и безоблачно+19°C53 %739 мм2.1 м/с5 %
    12:00Ясно и безоблачно+27°C39 %740 мм2.0 м/с5 %
    15:00Ясно и безоблачно+29°C31 %738 мм1.4 м/с5 %
    18:00Ясно и безоблачно+29°C35 %737 мм1.2 м/с5 %
    21:00Ясно и безоблачно+23°C55 %738 мм2.7 м/с5 %
  • 23июля
    Вторник
    +16°
    +31°
    Ясно и безоблачно
    ВремяПогодаТемператураВлажностьДавлениеВетер, м/сВероятность осадков
    00:00Ясно и безоблачно+22°C49 %738 мм3.2 м/с5 %
    03:00Ясно и безоблачно+19°C58 %737 мм2.8 м/с5 %
    06:00Ясно и безоблачно+17°C73 %738 мм2.6 м/с5 %
    09:00Ясно и безоблачно+19°C56 %740 мм2.8 м/с5 %
    12:00Ясно и безоблачно+27°C36 %740 мм2.2 м/с5 %
    15:00Ясно и безоблачно+30°C29 %737 мм2.5 м/с5 %
    18:00Ясно и безоблачно+28°C39 %737 мм1.9 м/с5 %
    21:00Ясно и безоблачно+25°C53 %737 мм2.9 м/с5 %
  • 24июля
    Среда
    +17°
    +32°
    Ясно и безоблачно
    ВремяПогодаТемператураВлажностьДавлениеВетер, м/сВероятность осадков
    00:00Практически безоблачно+22°C57 %738 мм2.7 м/с5 %
    03:00Ясно и безоблачно+19°C65 %736 мм2.4 м/с5 %
    06:00Ясно и безоблачно+17°C72 %737 мм2.3 м/с5 %
    09:00Ясно и безоблачно+21°C56 %739 мм2.1 м/с5 %
    12:00Практически безоблачно+28°C37 %739 мм3.6 м/с5 %
    15:00Ясно и безоблачно+31°C28 %737 мм3.6 м/с5 %
    18:00Ясно и безоблачно+29°C35 %737 мм2.8 м/с5 %
    21:00Ясно и безоблачно+27°C42 %737 мм3.1 м/с5 %
  • 25июля
    Четверг
    +17°
    +32°
    Ясно и безоблачно
    ВремяПогодаТемператураВлажностьДавлениеВетер, м/сВероятность осадков
    00:00Ясно и безоблачно+22°C61 %737 мм2.5 м/с5 %
    03:00Ясно и безоблачно+20°C69 %736 мм2.7 м/с5 %
    06:00Ясно и безоблачно+18°C74 %737 мм2.5 м/с5 %
    09:00Ясно и безоблачно+21°C60 %739 мм1.8 м/с5 %
    12:00Ясно и безоблачно+29°C37 %738 мм3.1 м/с5 %
    15:00Ясно и безоблачно+32°C28 %736 мм1.6 м/с5 %
    18:00Ясно и безоблачно+29°C36 %735 мм2.4 м/с5 %
    21:00Ясно и безоблачно+25°C51 %736 мм2.5 м/с5 %
Мы используем cookies
Соглашаюсь